Time;durP1;ratioP1;P1;durP2;ratioP2;P2;SDS_P1;SDS_P2;PMS_P1;PMS_P2;Temp;Humidity;BMP_temperature;BMP_pressure;BME280_temperature;BME280_humidity;BME280_pressure;Samples;Min_cycle;Max_cycle;Signal;HPM_P1;HPM_P2
2023/08/22 00:01:27;;;;;;;2.90;2.60;;;25.10;99.90;;;;;;4905789;29;20463;-46
2023/08/22 00:03:56;;;;;;;2.40;2.20;;;25.10;99.90;;;;;;4907555;29;20504;-46
2023/08/22 00:06:23;;;;;;;2.73;2.53;;;25.10;99.90;;;;;;4908989;29;20474;-50
2023/08/22 00:08:50;;;;;;;2.50;2.30;;;25.10;99.90;;;;;;4908342;29;20471;-46
2023/08/22 00:11:17;;;;;;;3.03;2.23;;;25.10;99.90;;;;;;4909120;29;20550;-48
2023/08/22 00:13:46;;;;;;;2.27;2.07;;;25.10;99.90;;;;;;4907659;29;20459;-47
2023/08/22 00:16:13;;;;;;;2.13;1.97;;;25.10;99.90;;;;;;4907430;29;20955;-47
2023/08/22 00:18:39;;;;;;;2.17;2.07;;;25.00;99.90;;;;;;4908580;29;20560;-47
2023/08/22 00:21:06;;;;;;;2.27;2.10;;;25.00;99.90;;;;;;4910533;29;20467;-49
2023/08/22 00:23:33;;;;;;;2.40;2.20;;;25.00;99.90;;;;;;4894965;29;20478;-47
2023/08/22 00:25:59;;;;;;;2.10;1.90;;;25.00;99.90;;;;;;4904798;29;20974;-46
2023/08/22 00:28:26;;;;;;;2.00;1.90;;;25.00;99.90;;;;;;4916627;29;20499;-50
2023/08/22 00:30:54;;;;;;;2.20;2.00;;;25.00;99.90;;;;;;4910483;29;20467;-46
2023/08/22 00:33:21;;;;;;;2.03;1.90;;;25.00;99.90;;;;;;4912663;29;20487;-47
2023/08/22 00:35:49;;;;;;;2.17;1.97;;;25.00;99.90;;;;;;4913953;29;20472;-46
2023/08/22 00:38:15;;;;;;;2.30;2.10;;;25.00;99.90;;;;;;4911690;29;20486;-47
2023/08/22 00:40:42;;;;;;;2.63;2.40;;;25.00;99.90;;;;;;4915815;29;20827;-47
2023/08/22 00:43:09;;;;;;;3.20;2.60;;;25.00;99.90;;;;;;4909790;29;20557;-50
2023/08/22 00:45:36;;;;;;;3.70;2.53;;;25.00;99.90;;;;;;4911994;29;20820;-47
2023/08/22 00:48:05;;;;;;;2.53;2.13;;;25.00;99.90;;;;;;4913713;29;20464;-48
2023/08/22 00:50:33;;;;;;;2.50;2.30;;;25.00;99.90;;;;;;4916033;29;20446;-47
2023/08/22 00:53:00;;;;;;;2.30;2.10;;;25.00;99.90;;;;;;4909331;29;20807;-50
2023/08/22 00:55:27;;;;;;;2.60;2.40;;;25.00;99.90;;;;;;4911618;29;21170;-46
2023/08/22 00:57:53;;;;;;;3.27;3.00;;;25.00;99.90;;;;;;4914575;29;20452;-46
2023/08/22 01:00:20;;;;;;;3.10;2.10;;;25.00;99.90;;;;;;4911768;29;20454;-47
2023/08/22 01:02:47;;;;;;;2.30;2.10;;;25.00;99.90;;;;;;4913409;29;20510;-47
2023/08/22 01:05:16;;;;;;;2.17;2.07;;;25.00;99.90;;;;;;4908622;29;20479;-50
2023/08/22 01:07:52;;;;;;;2.50;2.30;;;25.00;99.90;;;;;;4909611;29;20474;-48
2023/08/22 01:10:22;;;;;;;4.93;2.77;;;25.00;99.90;;;;;;4913080;29;20591;-47
2023/08/22 01:12:56;;;;;;;4.17;2.30;;;25.00;99.90;;;;;;4914048;29;20502;-47
2023/08/22 01:15:26;;;;;;;2.07;1.87;;;25.00;99.90;;;;;;4911537;29;20470;-47
2023/08/22 01:17:54;;;;;;;2.83;2.53;;;25.00;99.90;;;;;;4912929;29;20460;-47
2023/08/22 01:20:22;;;;;;;2.60;2.40;;;25.00;99.90;;;;;;4912341;29;20480;-48
2023/08/22 01:22:50;;;;;;;2.93;2.53;;;25.00;99.90;;;;;;4909267;29;20466;-47
2023/08/22 01:25:17;;;;;;;2.37;2.17;;;25.00;99.90;;;;;;4911663;29;20466;-46
2023/08/22 01:27:53;;;;;;;2.67;2.43;;;25.00;99.90;;;;;;4912625;29;20960;-49
2023/08/22 01:30:27;;;;;;;2.57;2.37;;;25.00;99.90;;;;;;4908645;29;20473;-49
2023/08/22 01:32:56;;;;;;;2.40;2.20;;;25.00;99.90;;;;;;4910862;29;20485;-47
2023/08/22 01:35:25;;;;;;;1.80;1.70;;;25.00;99.90;;;;;;4906774;29;20474;-50
2023/08/22 01:37:54;;;;;;;2.17;2.00;;;25.00;99.90;;;;;;4906384;29;20466;-50
2023/08/22 01:40:25;;;;;;;3.57;2.67;;;25.00;99.90;;;;;;4906969;29;20502;-47
2023/08/22 01:42:51;;;;;;;2.30;2.10;;;25.00;99.90;;;;;;4905590;29;21041;-48
2023/08/22 01:45:18;;;;;;;2.97;2.77;;;25.00;99.90;;;;;;4905818;29;20971;-50
2023/08/22 01:47:45;;;;;;;2.30;2.00;;;25.00;99.90;;;;;;4906714;29;20467;-46
2023/08/22 01:50:12;;;;;;;3.03;2.00;;;25.00;99.90;;;;;;4907273;29;20471;-49
2023/08/22 01:52:39;;;;;;;2.43;2.23;;;25.00;99.90;;;;;;4905175;29;20471;-48
2023/08/22 01:55:08;;;;;;;2.33;2.07;;;25.00;99.90;;;;;;4906119;29;21062;-49
2023/08/22 01:57:35;;;;;;;2.17;2.07;;;25.00;99.90;;;;;;4905864;29;20538;-47
2023/08/22 02:00:03;;;;;;;2.30;2.13;;;25.00;99.90;;;;;;4907608;29;20493;-46
2023/08/22 02:02:30;;;;;;;2.13;2.00;;;25.00;99.90;;;;;;4904987;29;20467;-52
2023/08/22 02:04:56;;;;;;;2.20;2.00;;;25.00;99.90;;;;;;4906898;29;20470;-49
2023/08/22 02:07:23;;;;;;;2.23;2.13;;;24.90;99.90;;;;;;4909331;29;20464;-47
2023/08/22 02:09:50;;;;;;;2.13;1.97;;;24.90;99.90;;;;;;4912377;29;20819;-47
2023/08/22 02:12:18;;;;;;;2.23;2.03;;;24.90;99.90;;;;;;4908592;29;20470;-47
2023/08/22 02:14:45;;;;;;;2.37;2.00;;;24.90;99.90;;;;;;4910008;29;20899;-47
2023/08/22 02:17:11;;;;;;;2.00;1.80;;;24.90;99.90;;;;;;4902858;29;20802;-47
2023/08/22 02:19:38;;;;;;;2.43;2.23;;;24.90;99.90;;;;;;4908035;29;20502;-49
2023/08/22 02:22:05;;;;;;;2.57;2.37;;;24.90;99.90;;;;;;4907968;29;20477;-50
2023/08/22 02:24:31;;;;;;;2.20;2.00;;;24.90;99.90;;;;;;4909582;29;20595;-46
2023/08/22 02:26:58;;;;;;;2.47;2.27;;;24.90;99.90;;;;;;4910845;29;20471;-48
2023/08/22 02:29:26;;;;;;;2.67;2.47;;;24.90;99.90;;;;;;4907736;29;20474;-48
2023/08/22 02:31:53;;;;;;;2.07;1.97;;;24.90;99.90;;;;;;4908025;29;20467;-50
2023/08/22 02:34:20;;;;;;;2.57;2.37;;;24.90;99.90;;;;;;4910325;29;20463;-47
2023/08/22 02:36:46;;;;;;;2.00;1.90;;;24.90;99.90;;;;;;4907193;29;20470;-47
2023/08/22 02:39:13;;;;;;;1.90;1.73;;;24.90;99.90;;;;;;4909688;29;20483;-47
2023/08/22 02:41:40;;;;;;;2.83;2.53;;;24.90;99.90;;;;;;4902085;29;20463;-46
2023/08/22 02:44:07;;;;;;;2.00;1.80;;;24.90;99.90;;;;;;4905577;29;20515;-49
2023/08/22 02:46:35;;;;;;;2.30;2.20;;;24.90;99.90;;;;;;4906715;29;20464;-46
2023/08/22 02:49:02;;;;;;;2.20;2.00;;;24.90;99.90;;;;;;4909279;29;20462;-48
2023/08/22 02:51:29;;;;;;;2.13;1.93;;;24.90;99.90;;;;;;4909333;29;20466;-47
2023/08/22 02:53:56;;;;;;;2.33;2.10;;;24.90;99.90;;;;;;4909493;29;21073;-48
2023/08/22 02:56:23;;;;;;;2.50;2.30;;;24.90;99.90;;;;;;4913262;29;20455;-47
2023/08/22 02:58:49;;;;;;;2.43;2.23;;;24.90;99.90;;;;;;4906005;29;21009;-49
2023/08/22 03:01:17;;;;;;;2.30;2.10;;;24.90;99.90;;;;;;4900964;29;20502;-47
2023/08/22 03:03:49;;;;;;;2.80;2.23;;;24.90;99.90;;;;;;4909175;29;20474;-47
2023/08/22 03:06:16;;;;;;;2.00;1.90;;;24.90;99.90;;;;;;4908887;29;20475;-48
2023/08/22 03:08:43;;;;;;;2.23;2.03;;;24.90;99.90;;;;;;4904500;29;20472;-52
2023/08/22 03:11:09;;;;;;;1.97;1.87;;;24.90;99.90;;;;;;4910652;29;21251;-46
2023/08/22 03:13:36;;;;;;;2.10;2.00;;;24.90;99.90;;;;;;4909042;29;20478;-50
2023/08/22 03:16:04;;;;;;;2.43;2.23;;;24.90;99.90;;;;;;4905208;29;20500;-48
2023/08/22 03:18:31;;;;;;;2.40;2.20;;;24.90;99.90;;;;;;4902428;29;20876;-46
2023/08/22 03:20:59;;;;;;;2.10;1.90;;;24.90;99.90;;;;;;4911212;29;20926;-47
2023/08/22 03:23:26;;;;;;;1.90;1.80;;;24.90;99.90;;;;;;4907381;29;20465;-48
2023/08/22 03:25:57;;;;;;;2.60;2.40;;;24.90;99.90;;;;;;4910443;29;20962;-47
2023/08/22 03:28:24;;;;;;;1.67;1.57;;;24.90;99.90;;;;;;4909067;29;20549;-46
2023/08/22 03:30:56;;;;;;;2.63;2.43;;;24.90;99.90;;;;;;4910179;29;20479;-48
2023/08/22 03:33:23;;;;;;;2.33;2.13;;;24.90;99.90;;;;;;4910045;29;20467;-48
2023/08/22 03:35:51;;;;;;;2.60;2.40;;;24.90;99.90;;;;;;4909662;29;20470;-46
2023/08/22 03:38:19;;;;;;;7.00;3.27;;;24.90;99.90;;;;;;4907587;29;21059;-46
2023/08/22 03:40:47;;;;;;;1.90;1.80;;;24.80;99.90;;;;;;4904947;29;20510;-49
2023/08/22 03:43:14;;;;;;;1.90;1.80;;;24.90;99.90;;;;;;4908326;29;21201;-49
2023/08/22 03:45:40;;;;;;;2.70;2.17;;;24.80;99.90;;;;;;4905834;29;20591;-49
2023/08/22 03:48:07;;;;;;;2.70;2.50;;;24.80;99.90;;;;;;4905931;29;20467;-48
2023/08/22 03:50:34;;;;;;;2.83;2.57;;;24.90;99.90;;;;;;4905949;29;20479;-49
2023/08/22 03:53:01;;;;;;;2.53;2.33;;;24.80;99.90;;;;;;4905358;29;21107;-50
2023/08/22 03:55:29;;;;;;;2.73;2.40;;;24.80;99.90;;;;;;4905304;29;20452;-47
2023/08/22 03:57:58;;;;;;;2.13;1.93;;;24.80;99.90;;;;;;4904638;29;20463;-50
2023/08/22 04:00:25;;;;;;;2.53;2.33;;;24.80;99.90;;;;;;4901284;29;21130;-47
2023/08/22 04:02:55;;;;;;;2.33;2.07;;;24.80;99.90;;;;;;4904694;29;20494;-46
2023/08/22 04:05:22;;;;;;;2.97;2.77;;;24.80;99.90;;;;;;4906592;29;20495;-47
2023/08/22 04:07:49;;;;;;;2.30;2.10;;;24.80;99.90;;;;;;4907841;29;20467;-48
2023/08/22 04:10:15;;;;;;;2.37;2.17;;;24.80;99.90;;;;;;4908997;29;20486;-47
2023/08/22 04:12:44;;;;;;;2.17;2.07;;;24.80;99.90;;;;;;4907760;29;20478;-50
2023/08/22 04:15:11;;;;;;;2.27;2.07;;;24.80;99.90;;;;;;4907936;29;20490;-47
2023/08/22 04:17:41;;;;;;;2.23;1.80;;;24.80;99.90;;;;;;4908428;29;20531;-48
2023/08/22 04:20:09;;;;;;;2.13;1.93;;;24.80;99.90;;;;;;4910542;29;20905;-47
2023/08/22 04:22:36;;;;;;;2.27;2.17;;;24.80;99.90;;;;;;4907338;29;20559;-47
2023/08/22 04:25:05;;;;;;;2.67;1.93;;;24.80;99.90;;;;;;4905072;29;21035;-47
2023/08/22 04:27:32;;;;;;;2.23;1.70;;;24.80;99.90;;;;;;4910334;29;20562;-47
2023/08/22 04:30:00;;;;;;;2.60;2.40;;;24.80;99.90;;;;;;4909123;29;20467;-47
2023/08/22 04:32:27;;;;;;;2.10;2.00;;;24.80;99.90;;;;;;4901336;29;20467;-48
2023/08/22 04:34:54;;;;;;;1.87;1.67;;;24.80;99.90;;;;;;4906025;29;20952;-46
2023/08/22 04:37:20;;;;;;;2.33;2.23;;;24.80;99.90;;;;;;4904999;29;20468;-48
2023/08/22 04:39:47;;;;;;;2.17;1.97;;;24.80;99.90;;;;;;4908952;29;21061;-47
2023/08/22 04:42:14;;;;;;;2.97;1.87;;;24.80;99.90;;;;;;4906238;29;20840;-48
2023/08/22 04:44:41;;;;;;;1.97;1.83;;;24.80;99.90;;;;;;4907410;29;20474;-47
2023/08/22 04:47:08;;;;;;;2.13;1.93;;;24.80;99.90;;;;;;4903518;29;21085;-50
2023/08/22 04:49:35;;;;;;;2.60;2.40;;;24.80;99.90;;;;;;4906651;29;20474;-47
2023/08/22 04:52:03;;;;;;;2.17;1.97;;;24.80;99.90;;;;;;4905147;29;20474;-49
2023/08/22 04:54:29;;;;;;;3.60;2.80;;;24.80;99.90;;;;;;4902819;29;20495;-51
2023/08/22 04:56:56;;;;;;;1.37;1.27;;;24.80;99.90;;;;;;4905310;29;20466;-47
2023/08/22 04:59:23;;;;;;;2.37;2.17;;;24.80;99.90;;;;;;4905261;29;20479;-50
2023/08/22 05:01:50;;;;;;;2.33;2.20;;;24.80;99.90;;;;;;4904623;29;20462;-49
2023/08/22 05:04:18;;;;;;;2.20;2.10;;;24.80;99.90;;;;;;4902875;29;20609;-47
2023/08/22 05:06:45;;;;;;;2.13;1.97;;;24.80;99.90;;;;;;4904480;29;20466;-46
2023/08/22 05:09:13;;;;;;;2.30;2.10;;;24.80;99.90;;;;;;4905600;29;20506;-49
2023/08/22 05:11:40;;;;;;;2.93;1.97;;;24.80;99.90;;;;;;4909693;29;20486;-48
2023/08/22 05:14:07;;;;;;;2.03;1.93;;;24.80;99.90;;;;;;4907329;29;20455;-46
2023/08/22 05:16:34;;;;;;;2.40;2.20;;;24.80;99.90;;;;;;4911719;29;20473;-47
2023/08/22 05:19:01;;;;;;;2.57;2.37;;;24.80;99.90;;;;;;4917108;29;20472;-50
2023/08/22 05:21:29;;;;;;;1.63;1.50;;;24.80;99.90;;;;;;4909244;29;20493;-48
2023/08/22 05:23:55;;;;;;;2.50;2.20;;;24.80;99.90;;;;;;4908699;29;20469;-48
2023/08/22 05:26:22;;;;;;;2.10;2.00;;;24.80;99.90;;;;;;4911005;29;20473;-48
2023/08/22 05:28:49;;;;;;;2.20;2.00;;;24.80;99.90;;;;;;4908423;29;20476;-47
2023/08/22 05:31:20;;;;;;;2.30;2.10;;;24.80;99.90;;;;;;4907866;29;20478;-48
2023/08/22 05:33:46;;;;;;;1.83;1.73;;;24.80;99.90;;;;;;4910429;29;20463;-47
2023/08/22 05:36:13;;;;;;;2.17;1.90;;;24.80;99.90;;;;;;4911292;29;20917;-48
2023/08/22 05:38:41;;;;;;;1.93;1.83;;;24.80;99.90;;;;;;4909077;29;20466;-48
2023/08/22 05:41:08;;;;;;;2.20;2.00;;;24.80;99.90;;;;;;4909967;29;20493;-46
2023/08/22 05:43:35;;;;;;;1.77;1.67;;;24.80;99.90;;;;;;4912956;29;20995;-48
2023/08/22 05:46:02;;;;;;;2.20;2.00;;;24.80;99.90;;;;;;4909580;29;20470;-48
2023/08/22 05:48:29;;;;;;;2.50;2.30;;;24.80;99.90;;;;;;4911934;29;20462;-49
2023/08/22 05:50:57;;;;;;;2.00;1.80;;;24.80;99.90;;;;;;4907601;29;20767;-49
2023/08/22 05:53:24;;;;;;;2.30;2.10;;;24.80;99.90;;;;;;4906314;29;20495;-47
2023/08/22 05:55:52;;;;;;;2.03;1.93;;;24.80;99.90;;;;;;4908071;29;20471;-47
2023/08/22 05:58:19;;;;;;;2.33;2.13;;;24.80;99.90;;;;;;4905990;29;20504;-47
2023/08/22 06:00:46;;;;;;;1.77;1.67;;;24.80;99.90;;;;;;4904514;29;20489;-47
2023/08/22 06:03:13;;;;;;;2.73;1.77;;;24.80;99.90;;;;;;4902740;29;20476;-47
2023/08/22 06:05:39;;;;;;;2.10;1.80;;;24.80;99.90;;;;;;4904449;29;20471;-47
2023/08/22 06:08:06;;;;;;;2.13;2.03;;;24.80;99.90;;;;;;4906466;29;21097;-46
2023/08/22 06:10:33;;;;;;;1.93;1.83;;;24.80;99.90;;;;;;4906631;29;20948;-48
2023/08/22 06:13:01;;;;;;;1.83;1.73;;;24.80;99.90;;;;;;4911105;29;20892;-47
2023/08/22 06:15:28;;;;;;;1.70;1.60;;;24.80;99.90;;;;;;4912425;29;20464;-52
2023/08/22 06:17:54;;;;;;;1.87;1.77;;;24.80;99.90;;;;;;4909692;29;20470;-48
2023/08/22 06:20:21;;;;;;;1.80;1.70;;;24.80;99.90;;;;;;4911493;29;20503;-45
2023/08/22 06:22:48;;;;;;;2.30;1.90;;;24.80;99.90;;;;;;4914952;29;20804;-48
2023/08/22 06:25:14;;;;;;;1.83;1.73;;;24.80;99.90;;;;;;4915449;29;20482;-48
2023/08/22 06:27:42;;;;;;;2.30;2.10;;;24.80;99.90;;;;;;4914446;29;20461;-46
2023/08/22 06:30:11;;;;;;;1.83;1.73;;;24.80;99.90;;;;;;4905965;29;20993;-48
2023/08/22 06:32:37;;;;;;;1.60;1.50;;;24.80;99.90;;;;;;4915747;29;20459;-46
2023/08/22 06:35:05;;;;;;;1.70;1.60;;;24.80;99.90;;;;;;4911758;29;20921;-47
2023/08/22 06:37:32;;;;;;;1.70;1.60;;;24.80;99.90;;;;;;4914617;29;20464;-48
2023/08/22 06:39:58;;;;;;;1.90;1.80;;;24.90;99.90;;;;;;4907710;29;20940;-47
2023/08/22 06:42:25;;;;;;;1.83;1.73;;;24.90;99.90;;;;;;4913733;29;21059;-47
2023/08/22 06:44:52;;;;;;;2.23;2.03;;;24.80;99.90;;;;;;4909925;29;20498;-46
2023/08/22 06:47:20;;;;;;;2.00;1.80;;;24.90;99.90;;;;;;4910539;29;20470;-49
2023/08/22 06:49:47;;;;;;;2.30;2.10;;;24.90;99.90;;;;;;4915477;29;20472;-47
2023/08/22 06:52:14;;;;;;;1.93;1.80;;;24.90;99.90;;;;;;4915258;29;20860;-46
2023/08/22 06:54:41;;;;;;;1.80;1.70;;;24.90;99.90;;;;;;4909115;29;21058;-47
2023/08/22 06:57:07;;;;;;;1.80;1.70;;;24.90;99.90;;;;;;4903867;29;20811;-46
2023/08/22 06:59:34;;;;;;;1.60;1.50;;;24.90;99.90;;;;;;4908765;29;20464;-47
2023/08/22 07:02:01;;;;;;;1.83;1.73;;;24.90;99.90;;;;;;4904039;29;20484;-47
2023/08/22 07:04:30;;;;;;;1.77;1.67;;;24.90;99.90;;;;;;4909341;29;20472;-48
2023/08/22 07:06:57;;;;;;;2.00;1.67;;;24.90;99.90;;;;;;4908082;29;20467;-46
2023/08/22 07:09:23;;;;;;;4.00;3.60;;;24.90;99.90;;;;;;4909617;29;20970;-47
2023/08/22 07:11:50;;;;;;;4.77;2.60;;;24.90;99.90;;;;;;4910655;29;20798;-46
2023/08/22 07:14:17;;;;;;;9.53;4.70;;;24.90;99.90;;;;;;4907611;29;20459;-50
2023/08/22 07:16:43;;;;;;;5.77;3.90;;;24.90;99.90;;;;;;4903805;29;20479;-51
2023/08/22 07:19:10;;;;;;;5.10;4.60;;;24.90;99.90;;;;;;4903050;29;20477;-46
2023/08/22 07:21:38;;;;;;;18.07;4.63;;;24.90;99.90;;;;;;4905997;29;20897;-48
2023/08/22 07:24:05;;;;;;;6.80;5.13;;;24.90;99.90;;;;;;4906485;29;20481;-48
2023/08/22 07:26:32;;;;;;;5.60;5.10;;;24.90;99.90;;;;;;4903157;29;22093;-46
2023/08/22 07:28:59;;;;;;;9.67;5.77;;;24.80;99.90;;;;;;4908170;29;20967;-48
2023/08/22 07:31:25;;;;;;;8.30;4.80;;;24.80;99.90;;;;;;4907878;29;21336;-46
2023/08/22 07:33:52;;;;;;;5.83;3.60;;;24.80;99.90;;;;;;4906172;29;20498;-51
2023/08/22 07:36:20;;;;;;;7.50;4.20;;;24.90;99.90;;;;;;4905198;29;20494;-49
2023/08/22 07:38:48;;;;;;;7.17;4.07;;;24.80;99.90;;;;;;4906966;29;20471;-47
2023/08/22 07:41:16;;;;;;;6.70;4.30;;;24.80;99.90;;;;;;4906038;29;20506;-46
2023/08/22 07:43:43;;;;;;;9.10;4.20;;;24.80;99.90;;;;;;4907786;29;20470;-49
2023/08/22 07:46:09;;;;;;;5.30;3.87;;;24.80;99.90;;;;;;4908635;29;20463;-48
2023/08/22 07:48:36;;;;;;;5.53;4.50;;;24.80;99.90;;;;;;4904733;29;21670;-47
2023/08/22 07:51:03;;;;;;;5.77;4.63;;;24.90;99.90;;;;;;4907689;29;20587;-50
2023/08/22 07:53:30;;;;;;;4.63;4.13;;;24.80;99.90;;;;;;4908898;29;20470;-49
2023/08/22 07:55:59;;;;;;;6.20;4.50;;;24.80;99.90;;;;;;4906878;29;20470;-47
2023/08/22 07:58:25;;;;;;;7.17;4.07;;;24.80;99.90;;;;;;4910211;29;20470;-50
2023/08/22 08:00:52;;;;;;;5.27;3.57;;;24.80;99.90;;;;;;4907914;29;20492;-49
2023/08/22 08:03:19;;;;;;;17.40;3.93;;;24.90;99.90;;;;;;4904531;29;21037;-46
2023/08/22 08:05:45;;;;;;;5.40;3.50;;;24.90;99.90;;;;;;4899694;29;20460;-47
2023/08/22 08:08:12;;;;;;;5.13;3.70;;;24.80;99.90;;;;;;4904733;29;20471;-48
2023/08/22 08:10:39;;;;;;;4.50;3.60;;;24.90;99.90;;;;;;4903695;29;20475;-47
2023/08/22 08:13:07;;;;;;;3.97;3.50;;;24.90;99.90;;;;;;4906953;29;20569;-47
2023/08/22 08:15:34;;;;;;;5.83;4.67;;;24.90;99.90;;;;;;4903038;29;20469;-47
2023/08/22 08:18:01;;;;;;;4.73;3.63;;;24.90;99.90;;;;;;4904697;29;20467;-48
2023/08/22 08:20:28;;;;;;;4.23;3.57;;;24.80;99.90;;;;;;4906229;29;20498;-46
2023/08/22 08:22:55;;;;;;;5.33;3.50;;;24.90;99.90;;;;;;4903893;29;20558;-49
2023/08/22 08:25:22;;;;;;;4.03;3.40;;;24.90;99.90;;;;;;4902895;29;20899;-48
2023/08/22 08:27:48;;;;;;;6.93;3.63;;;24.90;99.90;;;;;;4908341;29;20469;-47
2023/08/22 08:30:16;;;;;;;4.23;3.50;;;24.90;99.90;;;;;;4903495;29;20479;-46
2023/08/22 08:32:43;;;;;;;3.07;2.80;;;24.90;99.90;;;;;;4901477;29;20470;-47
2023/08/22 08:35:10;;;;;;;7.10;3.20;;;24.90;99.90;;;;;;4902112;29;20467;-47
2023/08/22 08:37:37;;;;;;;3.60;3.30;;;24.90;99.90;;;;;;4904745;29;20834;-50
2023/08/22 08:40:07;;;;;;;8.17;3.87;;;24.90;99.90;;;;;;4904330;29;20467;-46
2023/08/22 08:42:35;;;;;;;6.73;3.97;;;24.90;99.90;;;;;;4909085;29;20840;-49
2023/08/22 08:45:03;;;;;;;5.37;3.40;;;24.90;99.90;;;;;;4907006;29;20476;-48
2023/08/22 08:47:33;;;;;;;4.37;3.37;;;24.90;99.90;;;;;;4912013;29;20463;-49
2023/08/22 08:50:01;;;;;;;3.57;3.20;;;24.90;99.90;;;;;;4905062;29;20472;-47
2023/08/22 08:52:28;;;;;;;8.50;3.90;;;24.90;99.90;;;;;;4907153;29;20485;-48
2023/08/22 08:54:56;;;;;;;6.10;3.40;;;24.90;99.90;;;;;;4907027;29;20463;-49
2023/08/22 08:57:23;;;;;;;3.93;3.40;;;24.90;99.90;;;;;;4908079;29;20463;-47
2023/08/22 08:59:50;;;;;;;7.93;3.40;;;24.90;99.90;;;;;;4910388;29;20470;-48
2023/08/22 09:02:18;;;;;;;3.90;3.60;;;24.90;99.90;;;;;;4909036;29;20493;-51
2023/08/22 09:04:46;;;;;;;3.67;3.07;;;24.90;99.90;;;;;;4904029;29;20498;-51
2023/08/22 09:07:14;;;;;;;5.33;3.00;;;24.90;99.90;;;;;;4897020;29;20455;-55
2023/08/22 09:09:41;;;;;;;5.50;3.13;;;24.90;99.90;;;;;;4908364;29;20466;-51
2023/08/22 09:12:09;;;;;;;4.53;3.53;;;24.90;99.90;;;;;;4908308;29;20485;-54
2023/08/22 09:14:41;;;;;;;2.93;2.63;;;24.90;99.90;;;;;;4905425;29;20463;-53
2023/08/22 09:17:08;;;;;;;3.77;3.10;;;24.90;99.90;;;;;;4906343;29;20466;-46
2023/08/22 09:19:35;;;;;;;4.47;3.20;;;24.90;99.90;;;;;;4904555;29;20472;-45
2023/08/22 09:22:05;;;;;;;5.33;3.57;;;24.90;99.90;;;;;;4906273;29;20522;-47
2023/08/22 09:24:32;;;;;;;3.87;3.17;;;24.90;99.90;;;;;;4901512;29;20487;-44
2023/08/22 09:27:02;;;;;;;3.53;3.20;;;24.90;99.90;;;;;;4910285;29;20467;-47
2023/08/22 09:29:29;;;;;;;4.10;3.37;;;24.90;99.90;;;;;;4904617;29;20478;-48
2023/08/22 09:31:58;;;;;;;3.10;2.90;;;24.90;99.90;;;;;;4906051;29;20464;-49
2023/08/22 09:34:24;;;;;;;4.00;3.33;;;25.00;99.90;;;;;;4908962;29;20443;-48
2023/08/22 09:36:54;;;;;;;8.13;3.03;;;25.00;99.90;;;;;;4906947;29;20497;-46
2023/08/22 09:39:23;;;;;;;5.93;3.47;;;25.00;99.90;;;;;;4903965;29;21553;-49
2023/08/22 09:41:53;;;;;;;8.63;3.93;;;25.00;99.90;;;;;;4905993;29;20921;-50
2023/08/22 09:44:23;;;;;;;3.93;3.50;;;25.00;99.90;;;;;;4907408;29;20647;-49
2023/08/22 09:46:51;;;;;;;7.93;3.70;;;25.00;99.90;;;;;;4910061;29;20503;-48
2023/08/22 09:49:18;;;;;;;4.60;2.90;;;25.00;99.90;;;;;;4907472;29;20813;-47
2023/08/22 09:51:46;;;;;;;5.63;2.90;;;25.10;99.90;;;;;;4907932;29;20482;-47
2023/08/22 09:54:14;;;;;;;3.67;3.10;;;25.10;99.90;;;;;;4911138;29;20803;-48
2023/08/22 09:56:42;;;;;;;3.10;2.80;;;25.10;99.90;;;;;;4910415;29;20823;-49
2023/08/22 09:59:09;;;;;;;3.83;3.23;;;25.10;99.90;;;;;;4910302;29;20467;-48
2023/08/22 10:01:39;;;;;;;4.90;3.03;;;25.10;99.90;;;;;;4909859;29;20829;-48
2023/08/22 10:04:06;;;;;;;3.60;3.30;;;25.10;99.90;;;;;;4909988;29;20471;-47
2023/08/22 10:06:35;;;;;;;5.60;2.93;;;25.10;99.90;;;;;;4910391;29;20456;-47
2023/08/22 10:09:07;;;;;;;4.60;3.23;;;25.10;99.90;;;;;;4910768;29;20606;-46
2023/08/22 10:11:38;;;;;;;3.63;3.30;;;25.10;99.90;;;;;;4910584;29;21123;-47
2023/08/22 10:14:07;;;;;;;4.87;3.77;;;25.10;99.90;;;;;;4909734;29;20470;-46
2023/08/22 10:16:34;;;;;;;3.53;3.23;;;25.10;99.90;;;;;;4910892;29;20456;-48
2023/08/22 10:19:02;;;;;;;3.20;2.90;;;25.10;99.90;;;;;;4910973;29;20963;-50
2023/08/22 10:21:33;;;;;;;4.17;3.20;;;25.10;99.90;;;;;;4909905;29;20498;-47
2023/08/22 10:24:00;;;;;;;3.23;2.93;;;25.10;99.90;;;;;;4909000;29;20539;-47
2023/08/22 10:26:46;;;;;;;5.90;3.70;;;25.10;99.90;;;;;;4910856;29;20467;-49
2023/08/22 10:29:15;;;;;;;5.20;4.37;;;25.10;99.90;;;;;;4909051;29;21056;-50
2023/08/22 10:32:15;;;;;;;3.70;3.40;;;25.10;99.90;;;;;;4909719;29;20478;-50
2023/08/22 10:35:07;;;;;;;4.50;4.00;;;25.10;99.90;;;;;;4903428;29;20485;-49
2023/08/22 10:37:46;;;;;;;4.23;3.50;;;25.10;99.90;;;;;;4907690;29;20948;-47
2023/08/22 10:40:22;;;;;;;4.33;3.40;;;25.10;99.90;;;;;;4907795;29;20676;-47
2023/08/22 10:43:02;;;;;;;4.23;3.50;;;25.10;99.90;;;;;;4908642;29;21009;-46
2023/08/22 10:45:37;;;;;;;3.93;3.60;;;25.10;99.90;;;;;;4908326;29;20466;-46
2023/08/22 10:48:10;;;;;;;4.10;3.70;;;25.10;99.90;;;;;;4909372;29;20455;-47
2023/08/22 10:50:39;;;;;;;3.83;3.53;;;25.10;99.90;;;;;;4908615;29;20569;-46
2023/08/22 10:53:27;;;;;;;3.90;3.17;;;25.10;99.90;;;;;;4909461;29;20486;-49
2023/08/22 10:55:55;;;;;;;3.37;3.17;;;25.10;99.90;;;;;;4903406;29;20466;-47
2023/08/22 10:58:42;;;;;;;4.30;3.83;;;25.10;99.90;;;;;;4907535;29;20467;-47
2023/08/22 11:01:12;;;;;;;4.93;3.40;;;25.20;99.90;;;;;;4908600;29;20464;-49
2023/08/22 11:03:40;;;;;;;3.73;3.33;;;25.10;99.90;;;;;;4910301;29;21086;-46
2023/08/22 11:06:14;;;;;;;3.53;3.23;;;25.10;99.90;;;;;;4908505;29;20475;-50
2023/08/22 11:08:42;;;;;;;4.20;3.80;;;25.10;99.90;;;;;;4910540;29;21046;-48
2023/08/22 11:11:09;;;;;;;4.43;3.57;;;25.10;99.90;;;;;;4911120;29;20475;-48
2023/08/22 11:13:38;;;;;;;4.97;3.63;;;25.10;99.90;;;;;;4910854;29;21020;-48
2023/08/22 11:16:11;;;;;;;4.30;3.40;;;25.10;99.90;;;;;;4910896;29;20466;-47
2023/08/22 11:18:39;;;;;;;3.37;3.13;;;25.10;99.90;;;;;;4911798;29;20464;-47
2023/08/22 11:21:06;;;;;;;5.43;3.40;;;25.10;99.90;;;;;;4910039;29;21231;-46
2023/08/22 11:23:34;;;;;;;3.70;3.40;;;25.10;99.90;;;;;;4910102;29;20471;-50
2023/08/22 11:26:02;;;;;;;4.20;3.80;;;25.10;99.90;;;;;;4911732;29;20463;-46
2023/08/22 11:28:33;;;;;;;4.00;3.70;;;25.10;99.90;;;;;;4910337;29;20565;-47
2023/08/22 11:31:01;;;;;;;3.90;3.60;;;25.10;99.90;;;;;;4908419;29;21076;-48
2023/08/22 11:33:36;;;;;;;3.93;3.63;;;25.10;99.90;;;;;;4914708;29;20478;-51
2023/08/22 11:36:04;;;;;;;3.63;3.37;;;25.10;99.90;;;;;;4912139;29;20463;-47
2023/08/22 11:38:33;;;;;;;3.80;3.50;;;25.10;99.90;;;;;;4911539;29;20463;-47
2023/08/22 11:41:01;;;;;;;4.00;3.70;;;25.10;99.90;;;;;;4905200;29;20459;-47
2023/08/22 11:43:27;;;;;;;3.63;3.33;;;25.10;99.90;;;;;;4912825;29;20491;-48
2023/08/22 11:45:54;;;;;;;4.60;3.67;;;25.10;99.90;;;;;;4906135;29;20476;-47
2023/08/22 11:48:21;;;;;;;6.53;3.90;;;25.10;99.90;;;;;;4904925;29;20466;-50
2023/08/22 11:50:51;;;;;;;4.10;3.80;;;25.10;99.90;;;;;;4903238;29;20986;-48
2023/08/22 11:53:18;;;;;;;4.30;3.90;;;25.10;99.90;;;;;;4906959;29;20477;-48
2023/08/22 11:55:47;;;;;;;4.27;3.87;;;25.10;99.90;;;;;;4909355;29;20475;-47
2023/08/22 11:58:15;;;;;;;6.80;4.73;;;25.10;99.90;;;;;;4904594;29;20475;-50
2023/08/22 12:00:42;;;;;;;4.90;4.33;;;25.10;99.90;;;;;;4900854;29;20474;-50
2023/08/22 12:03:09;;;;;;;7.00;4.40;;;25.10;99.90;;;;;;4907803;29;20494;-50
2023/08/22 12:05:38;;;;;;;4.90;4.10;;;25.10;99.90;;;;;;4901673;29;20472;-47
2023/08/22 12:08:19;;;;;;;4.50;4.03;;;25.10;99.90;;;;;;4894521;29;20475;-47
2023/08/22 12:10:47;;;;;;;4.83;4.30;;;25.10;99.90;;;;;;4900060;29;20498;-48
2023/08/22 12:13:15;;;;;;;5.30;3.87;;;25.10;99.90;;;;;;4902447;29;20877;-48
2023/08/22 12:15:42;;;;;;;5.73;5.17;;;25.10;99.90;;;;;;4900815;29;20471;-47
2023/08/22 12:18:10;;;;;;;5.40;3.73;;;25.10;99.90;;;;;;4902190;29;20467;-49
2023/08/22 12:20:38;;;;;;;4.83;3.73;;;25.10;99.90;;;;;;4907482;29;20482;-46
2023/08/22 12:23:05;;;;;;;4.60;4.30;;;25.10;99.90;;;;;;4906765;29;20570;-48
2023/08/22 12:25:35;;;;;;;4.43;3.97;;;25.10;99.90;;;;;;4898086;29;20467;-47
2023/08/22 12:28:03;;;;;;;4.57;4.17;;;25.10;99.90;;;;;;4909524;29;20557;-49
2023/08/22 12:30:33;;;;;;;3.40;3.07;;;25.10;99.90;;;;;;4905947;29;21336;-50
2023/08/22 12:32:59;;;;;;;4.20;3.90;;;25.10;99.90;;;;;;4905779;29;20887;-46
2023/08/22 12:35:26;;;;;;;4.73;3.40;;;25.10;99.90;;;;;;4902031;29;21076;-47
2023/08/22 12:37:53;;;;;;;4.73;3.90;;;25.10;99.90;;;;;;4908400;29;20466;-47
2023/08/22 12:40:20;;;;;;;4.60;4.20;;;25.10;99.90;;;;;;4906194;29;20471;-53
2023/08/22 12:42:48;;;;;;;4.47;4.17;;;25.10;99.90;;;;;;4898198;29;20487;-50
2023/08/22 12:45:15;;;;;;;6.73;3.87;;;25.10;99.90;;;;;;4899638;29;21124;-48
2023/08/22 12:47:42;;;;;;;4.07;3.43;;;25.10;99.90;;;;;;4906935;29;20463;-48
2023/08/22 12:50:10;;;;;;;6.00;4.37;;;25.10;99.90;;;;;;4907566;29;20478;-51
2023/08/22 12:52:38;;;;;;;5.53;4.53;;;25.10;99.90;;;;;;4900945;29;20833;-51